Skip Navigation Links
NOAA logo - Click to go to the NOAA homepage
NOAA's National Weather Service
Alaska Aviation Weather Unit
  NWS logo - Click to go to the NWS homepage
Left Navbar Graphic     02 AKDT = 10 GMT

   
NOAA is celebrating 200 years of science, service, and stewardship. Visit the NOAA 200th celebration Web site to learn more.
USA.gov is the U.S. Government's official Web portal to all Federal, state and local government Web resources and services.
Facebook
NWS on Facebook

AAWU Home :: Display TAF Add Bookmark
METAR PANN 270453Z AUTO 33005KT 10SM CLR M08/M17 A2977 RMK AO2 SLP096
     T10781172 TSNO=

METAR PANN 270553Z AUTO 00000KT 10SM CLR M11/M19 A2976 RMK AO2 SLP094
     T11111189 11044 21117 56007 TSNO=

METAR PANN 270653Z AUTO 00000KT 10SM CLR M14/M19 A2976 RMK AO2
 SLP091 T11391194 TSNO=

METAR PANN 270753Z AUTO 31003KT 10SM CLR M16/M21 A2975 RMK AO2 SLP089
     T11611206 TSNO=

METAR PANN 270853Z AUTO 30003KT 10SM CLR M16/M21 A2974 RMK AO2 SLP085
     T11611211 410441283 58007 TSNO=

METAR PANN 270953Z AUTO 00000KT 10SM CLR M18/M22 A2974 RMK AO2 SLP083
     T11831217 TSNO=


NOAA's National Weather Service
Alaska Aviation Weather Unit
6930 Sand Lake Road
Anchorage, AK 99502-1845
Disclaimer
Credits
Glossary
Privacy Policy
About Us
Career Opportunities
Contact AAWU Internet Services Site last modified: April, 17th 2012